Latest Coastal Weather Observations for Port Augusta

IDS60701

Issued at 5:55 am CST Wednesday 24 September 2014 (issued every 10 minutes, with the page automatically refreshed every 10 minutes)

About coastal observations | Map of coastal stations | Coastal observations for SA | Marine services | Other Formats
Station Details ID: 018201 Name: PORT AUGUSTA AERO Lat: -32.51 Lon: 137.72 Height: 13.97 m
Data from the previous 72 hours. | See also: Recent months at Port Augusta
Date/Time
CST
Temp

°C
Wind Pressure Rain
since 9am
mm
Weather Cloud Vis
km
Sea
Height
m
Swell
Dir
 
Speed
knots
Gust
knots
hPa Trend Height
m
Period
s
Dir
24/05:30am 13.0 W 8 9 1014.0 - 4.2 - - - - - - -
24/05:00am 13.2 CALM 0 0 1013.8 - 4.0 - - - - - - -
24/04:30am 13.2 NW 6 9 1014.1 - 4.0 - - - - - - -
24/04:00am 13.3 S 5 6 1013.2 - 4.0 - - - - - - -
24/03:30am 12.9 NW 3 4 1013.8 - 4.0 - - - - - - -
24/03:00am 13.1 NNW 4 5 1014.0 - 4.0 - - - - - - -
24/02:30am 13.1 SSE 1 3 1014.4 - 4.0 - - - - - - -
24/02:00am 14.1 SE 4 5 1014.4 - 4.0 - - - - - - -
24/01:30am 14.7 E 8 10 1014.2 - 4.0 - - - - - - -
24/01:00am 15.2 ESE 7 10 1014.4 - 4.0 - - - - - - -
24/12:30am 15.5 E 10 13 1014.7 - 4.0 - - - - - - -
24/12:00am 15.8 SE 7 8 1015.0 - 4.0 - - - - - - -
 
Date/Time
CST
Temp

°C
Wind Pressure Rain
since 9am
mm
Weather Cloud Vis
km
Sea
Height
m
Swell
Dir
 
Speed
knots
Gust
knots
hPa Trend Height
m
Period
s
Dir
23/11:30pm 15.9 SE 7 9 1015.7 - 4.0 - Partly cloudy - - - - -
23/11:00pm 15.9 SE 5 7 1016.1 - 4.0 - Cloudy - - - - -
23/10:30pm 15.7 NNE 8 12 1016.7 - 4.0 - Cloudy - - - - -
23/10:00pm 15.8 NNE 9 12 1016.8 - 3.6 - Cloudy - - - - -
23/09:30pm 16.0 N 3 4 1016.8 - 3.0 - Cloudy - - - - -
23/09:00pm 16.3 NNE 7 11 1016.4 - 2.2 - Cloudy - - - - -
23/08:30pm 18.1 N 10 15 1016.2 - 0.6 - Partly cloudy - - - - -
23/08:00pm 18.1 NNE 7 10 1015.5 - 0.6 - Cloudy - - - - -
23/07:30pm 17.9 ENE 9 12 1014.7 - 0.6 - Partly cloudy - - - - -
23/07:00pm 18.3 SE 6 10 1013.7 - 0.6 - Partly cloudy - - - - -
23/06:30pm 20.0 ENE 13 17 1014.6 - 0.2 - Partly cloudy - - - - -
23/06:00pm 20.8 ENE 13 18 1013.9 - 0.2 - Mostly clear - - - - -
23/05:30pm 22.0 ENE 14 18 1013.7 - 0.2 - Partly cloudy - - - - -
23/05:00pm 21.3 NNE 8 12 1013.5 - 0.2 - Partly cloudy - - - - -
23/04:30pm 22.4 N 17 21 1013.9 - 0.0 - Partly cloudy - - - - -
23/04:00pm 24.0 ENE 17 21 1013.1 - 0.0 - - - - - - -
23/03:30pm 24.2 E 15 20 1013.4 - 0.0 - Partly cloudy - - - - -
23/03:00pm 25.8 NE 14 21 1013.9 - 0.0 - Partly cloudy - - - - -
23/02:30pm 25.1 NNE 17 23 1014.1 - 0.0 - Partly cloudy - - - - -
23/02:18pm 26.1 NNE 15 21 1014.2 - 0.0 - Partly cloudy - - - - -
23/02:00pm 24.2 ENE 4 7 1014.2 - 0.0 - Partly cloudy - - - - -
23/01:46pm 22.1 W 7 29 1014.6 - 0.0 - Partly cloudy - - - - -
23/01:30pm 24.5 N 26 36 1014.8 - 0.0 - Partly cloudy - - - - -
23/01:20pm 25.7 N 18 34 1014.6 - 0.0 - Partly cloudy - - - - -
23/01:00pm 28.0 N 17 25 1014.5 - 0.0 - Partly cloudy - - - - -
23/12:30pm 28.9 N 20 27 1014.8 - 0.0 - Partly cloudy - - - - -
23/12:09pm 28.2 NNE 20 30 1015.3 - 0.0 - Partly cloudy - - - - -
23/12:00pm 27.9 NNE 19 25 1015.4 - 0.0 - Partly cloudy - - - - -
23/11:30am 25.7 N 18 29 1016.2 - 0.0 - Partly cloudy - - - - -
23/11:09am 27.1 N 15 25 1016.5 - 0.0 - Partly cloudy - - - - -
23/11:00am 25.3 N 15 21 1016.8 - 0.0 - Partly cloudy - - - - -
23/10:30am 24.3 N 16 24 1017.2 - 0.0 - Partly cloudy - - - - -
23/10:00am 25.3 NNE 16 22 1017.5 - 0.0 - - - - - - -
23/09:30am 24.2 NNE 15 21 1017.8 - 0.0 - - - - - - -
23/09:00am 23.5 NNE 14 18 1018.4 - 0.2 - - - - - - -
23/08:30am 22.8 NNE 10 14 1018.6 - 0.2 - - - - - - -
23/08:00am 21.4 NNE 9 12 1018.6 - 0.2 - - - - - - -
23/07:30am 20.4 NNE 8 10 1018.7 - 0.2 - - - - - - -
23/07:00am 18.4 E 5 7 1018.7 - 0.2 - - - - - - -
23/06:30am 17.2 NNE 8 11 1018.6 - 0.2 - - - - - - -
23/06:00am 18.4 NNE 14 19 1018.4 - 0.2 - - - - - - -
23/05:30am 17.3 NE 9 13 1018.6 - 0.2 - - - - - - -
23/05:00am 16.6 ENE 10 13 1018.5 - 0.2 - - - - - - -
23/04:30am 16.0 NE 8 10 1018.7 - 0.2 - - - - - - -
23/04:00am 16.6 ENE 8 10 1018.6 - 0.2 - - - - - - -
23/03:30am 18.8 NE 12 15 1018.7 - 0.2 - - - - - - -
23/03:00am 18.9 NE 13 18 1018.9 - 0.2 - - - - - - -
23/02:30am 19.2 NE 13 17 1019.0 - 0.2 - - - - - - -
23/02:00am 19.6 NE 14 18 1019.2 - 0.2 - - - - - - -
23/01:30am 15.0 E 8 9 1019.6 - 0.2 - - - - - - -
23/01:00am 14.6 E 8 9 1020.0 - 0.2 - - - - - - -
23/12:30am 11.0 ESE 5 6 1020.1 - 0.2 - - - - - - -
23/12:00am 10.5 CALM 0 0 1020.3 - 0.2 - - - - - - -
 
Date/Time
CST
Temp

°C
Wind Pressure Rain
since 9am
mm
Weather Cloud Vis
km
Sea
Height
m
Swell
Dir
 
Speed
knots
Gust
knots
hPa Trend Height
m
Period
s
Dir
22/11:30pm 11.1 S 3 4 1020.6 - 0.2 - - - - - - -
22/11:00pm 11.8 WSW 2 4 1020.7 - 0.2 - - - - - - -
22/10:30pm 13.2 SW 3 4 1020.8 - 0.2 - - - - - - -
22/10:00pm 15.8 WSW 4 5 1021.1 - 0.2 - - - - - - -
22/09:30pm 17.4 N 5 6 1020.9 - 0.2 - - - - - - -
22/09:00pm 17.8 NNE 8 9 1020.9 - 0.2 - - - - - - -
22/08:30pm 18.5 NNE 8 9 1020.8 - 0.2 - - - - - - -
22/08:00pm 21.1 NNE 10 12 1020.4 - 0.2 - - - - - - -
22/07:30pm 22.6 NE 11 14 1020.1 - 0.2 - - - - - - -
22/07:00pm 23.2 NE 12 14 1019.6 - 0.2 - - - - - - -
22/06:30pm 23.6 NE 11 13 1019.2 - 0.2 - - - - - - -
22/06:00pm 25.5 NE 13 18 1018.8 - 0.2 - - - - - - -
22/05:30pm 26.9 NE 13 17 1018.5 - 0.2 - - - - - - -
22/05:00pm 27.6 NE 13 19 1018.5 - 0.2 - - - - - - -
22/04:30pm 28.3 NNE 13 18 1018.4 - 0.2 - - - - - - -
22/04:00pm 28.7 NNE 15 20 1018.4 - 0.0 - - - - - - -
22/03:30pm 28.8 NE 16 23 1018.6 - 0.0 - - - - - - -
22/03:00pm 29.5 NE 11 17 1018.9 - 0.0 - - - - - - -
22/02:30pm 28.2 NNE 9 19 1019.4 - 0.0 - - - - - - -
22/02:00pm 29.6 N 9 17 1019.8 - 0.2 - - - - - - -
22/01:30pm 28.2 N 12 17 1020.6 - 0.2 - - - - - - -
22/01:00pm 27.6 N 13 26 1021.2 - 0.0 - - - - - - -
22/12:30pm 28.0 NE 10 21 1021.7 - 0.0 - - - - - - -
22/12:00pm 26.9 NE 13 21 1022.5 - 0.0 - - - - - - -
22/11:30am 26.0 NNE 15 21 1023.1 - 0.0 - - - - - - -
22/11:00am 26.2 NNE 15 22 1023.9 - 0.0 - - - - - - -
22/10:30am 25.3 NNE 16 22 1024.3 - 0.0 - - - - - - -
22/10:00am 24.7 NE 15 23 1024.6 - 0.0 - - - - - - -
22/09:30am 23.4 E 9 13 1024.9 - 0.0 - - - - - - -
22/09:00am 22.0 ENE 6 9 1025.2 - 0.0 - - - - - - -
22/08:30am 20.8 ENE 5 7 1025.3 - 0.0 - - - - - - -
22/08:00am 18.4 SSW 1 4 1025.3 - 0.0 - - - - - - -
22/07:30am 14.7 W 3 5 1025.2 - 0.0 - - - - - - -
22/07:29am 14.6 W 3 5 1025.2 - 0.0 - - - - - - -
22/07:00am 9.6 SW 5 6 1025.2 - 0.0 - - - - - - -
22/06:30am 5.5 SSW 5 6 1024.9 - 0.0 - - - - - - -
22/06:00am 5.9 S 4 4 1024.7 - 0.0 - - - - - - -
22/05:30am 6.7 SSW 5 6 1024.6 - 0.0 - - - - - - -
22/05:00am 6.6 WSW 5 6 1024.4 - 0.0 - - - - - - -
22/04:30am 9.8 SSE 4 6 1024.1 - 0.0 - - - - - - -
22/04:00am 11.0 SSE 5 7 1023.9 - 0.0 - - - - - - -
22/03:30am 8.1 SSW 6 7 1023.8 - 0.0 - - - - - - -
22/03:00am 10.1 W 5 8 1024.2 - 0.0 - - - - - - -
22/02:30am 9.4 SW 8 9 1024.4 - 0.0 - - - - - - -
22/02:00am 8.6 SSW 7 9 1024.7 - 0.0 - - - - - - -
22/01:30am 8.4 WSW 8 10 1024.9 - 0.0 - - - - - - -
22/01:00am 8.9 W 6 8 1025.2 - 0.0 - - - - - - -
22/12:30am 8.5 WSW 5 6 1025.1 - 0.0 - - - - - - -
22/12:00am 13.1 E 3 5 1024.9 - 0.0 - - - - - - -
 
Date/Time
CST
Temp

°C
Wind Pressure Rain
since 9am
mm
Weather Cloud Vis
km
Sea
Height
m
Swell
Dir
 
Speed
knots
Gust
knots
hPa Trend Height
m
Period
s
Dir
21/11:30pm 13.6 ESE 5 7 1025.1 - 0.0 - - - - - - -
21/11:00pm 14.0 ESE 7 9 1025.2 - 0.0 - - - - - - -
21/10:30pm 14.2 SE 8 11 1025.5 - 0.0 - - - - - - -
21/10:00pm 14.1 ESE 8 10 1025.7 - 0.0 - - - - - - -
21/09:30pm 15.6 ESE 9 11 1025.8 - 0.0 - - - - - - -
21/09:00pm 16.1 ESE 9 13 1025.9 - 0.0 - - - - - - -
21/08:30pm 16.8 ESE 11 14 1025.9 - 0.0 - - - - - - -
21/08:00pm 17.6 SE 10 13 1025.7 - 0.0 - - - - - - -
21/07:30pm 18.7 SE 10 14 1025.4 - 0.0 - - - - - - -
21/07:00pm 18.6 SE 9 12 1025.1 - 0.0 - - - - - - -
21/06:30pm 20.0 SE 8 11 1024.6 - 0.0 - - - - - - -
21/06:00pm 22.6 SE 11 13 1024.3 - 0.0 - - - - - - -
21/05:30pm 24.0 SSE 12 15 1024.1 - 0.0 - - - - - - -
21/05:00pm 24.8 SE 12 15 1023.9 - 0.0 - - - - - - -
21/04:30pm 25.5 SE 10 14 1023.8 - 0.0 - - - - - - -
21/04:00pm 25.6 SE 9 13 1024.1 - 0.0 - - - - - - -
21/03:30pm 25.7 SE 8 12 1024.2 - 0.0 - - - - - - -
21/03:00pm 25.4 SE 11 15 1024.5 - 0.0 - - - - - - -
21/02:30pm 25.6 ESE 9 14 1024.9 - 0.0 - - - - - - -
21/02:00pm 25.7 SE 7 12 1025.4 - 0.0 - - - - - - -
21/01:30pm 25.3 SSE 8 15 1025.8 - 0.0 - - - - - - -
21/01:00pm 25.4 SE 9 15 1026.4 - 0.0 - - - - - - -
21/12:30pm 24.5 SE 8 13 1027.0 - 0.0 - - - - - - -
21/12:00pm 23.6 ESE 8 12 1027.7 - 0.0 - - - - - - -
21/11:30am 23.5 SSE 7 11 1028.2 - 0.0 - - - - - - -
21/11:00am 23.3 WSW 5 7 1028.6 - 0.0 - - - - - - -
21/10:30am 22.8 W 5 8 1029.0 - 0.0 - - - - - - -
21/10:00am 21.8 W 4 6 1029.3 - 0.0 - - - - - - -
21/09:30am 21.8 N 5 9 1029.3 - 0.0 - - - - - - -
21/09:00am 20.7 ENE 5 8 1029.3 - 0.0 - - - - - - -
21/08:30am 19.4 W 1 4 1029.1 - 0.0 - - - - - - -
21/08:00am 17.7 WSW 4 6 1029.0 - 0.0 - - - - - - -
21/07:30am 16.3 SW 6 7 1028.6 - 0.0 - - - - - - -
21/07:00am 12.0 WSW 6 7 1028.3 - 0.0 - - - - - - -
21/06:59am 11.8 WSW 6 7 1028.3 - 0.0 - - - - - - -
21/06:30am 6.8 WSW 6 8 1027.9 - 0.0 - - - - - - -
21/06:00am 7.5 WSW 3 5 1027.7 - 0.0 - - - - - - -

Other Formats:

Comma delimited format used in spreadsheet applications
http://www.bom.gov.au/fwo/IDS60701/IDS60701.95666.axf

JavaScript Object Notation format (JSON) in row-major order
http://www.bom.gov.au/fwo/IDS60701/IDS60701.95666.json